createdAt,value
2022-08-14T00:01:24.045Z,19.60
2022-08-14T00:04:35.162Z,20.73
2022-08-14T00:07:15.433Z,21.67
2022-08-14T00:10:49.351Z,20.15
2022-08-14T00:13:06.743Z,19.73
2022-08-14T00:15:52.821Z,19.40
2022-08-14T00:19:18.321Z,19.77
2022-08-14T00:21:43.509Z,16.02
2022-08-14T00:24:31.025Z,15.95
2022-08-14T00:27:16.044Z,16.17
2022-08-14T00:30:06.563Z,17.35
2022-08-14T00:32:56.458Z,16.95
2022-08-14T00:36:36.112Z,15.23
2022-08-14T00:38:46.940Z,16.33
2022-08-14T00:41:33.371Z,17.67
2022-08-14T00:44:21.452Z,16.65
2022-08-14T00:47:18.928Z,16.02
2022-08-14T00:50:07.293Z,16.73
2022-08-14T00:53:04.121Z,16.30
2022-08-14T00:55:50.974Z,14.90
2022-08-14T00:58:38.933Z,14.30
2022-08-14T01:01:33.530Z,14.45
2022-08-14T01:04:38.478Z,15.30
2022-08-14T01:07:27.275Z,16.63
2022-08-14T01:10:13.057Z,16.30
2022-08-14T01:13:02.058Z,17.48
2022-08-14T01:16:02.794Z,19.08
2022-08-14T01:19:06.865Z,19.70
2022-08-14T01:21:53.863Z,17.42
2022-08-14T01:24:39.397Z,16.83
2022-08-14T01:27:28.575Z,15.32
2022-08-14T01:30:16.819Z,16.25
2022-08-14T01:33:06.791Z,14.40
2022-08-14T01:36:03.429Z,14.65
2022-08-14T01:38:53.468Z,14.97
2022-08-14T01:41:39.800Z,12.80
2022-08-14T01:44:31.951Z,15.43
2022-08-14T01:47:22.246Z,14.13
2022-08-14T01:50:09.253Z,14.90
2022-08-14T01:52:58.823Z,14.10
2022-08-14T01:55:45.122Z,13.60
2022-08-14T01:58:31.272Z,15.07
2022-08-14T02:01:18.950Z,13.85
2022-08-14T02:04:05.178Z,14.18
2022-08-14T02:07:07.306Z,14.40
2022-08-14T02:10:01.354Z,14.85
2022-08-14T02:12:54.070Z,14.95
2022-08-14T02:15:43.563Z,15.95
2022-08-14T02:18:32.589Z,17.23
2022-08-14T02:21:19.482Z,15.90
2022-08-14T02:24:39.617Z,15.68
2022-08-14T02:28:22.234Z,27.77
2022-08-14T02:30:20.243Z,24.00
2022-08-14T02:33:07.277Z,21.05
2022-08-14T02:36:00.599Z,17.57
2022-08-14T02:38:59.213Z,17.70
2022-08-14T02:41:52.427Z,20.55
2022-08-14T02:44:39.465Z,15.95
2022-08-14T02:47:26.584Z,14.85
2022-08-14T02:50:11.607Z,16.53
2022-08-14T02:53:03.037Z,17.25
2022-08-14T02:55:48.700Z,18.30
2022-08-14T02:58:38.573Z,15.07
2022-08-14T03:01:31.499Z,15.90
2022-08-14T03:04:30.811Z,16.03
2022-08-14T03:07:17.144Z,14.40
2022-08-14T03:10:25.492Z,15.15
2022-08-14T03:13:07.404Z,16.40
2022-08-14T03:16:09.276Z,15.80
2022-08-14T03:19:09.824Z,15.60
2022-08-14T03:21:57.223Z,15.20
2022-08-14T03:24:42.778Z,15.20
2022-08-14T03:27:35.293Z,15.82
2022-08-14T03:30:39.070Z,15.30
2022-08-14T03:33:27.751Z,16.70
2022-08-14T03:37:37.311Z,15.82
2022-08-14T03:39:24.167Z,16.27
2022-08-14T03:42:19.159Z,15.20
2022-08-14T03:45:27.671Z,17.23
2022-08-14T03:48:30.695Z,16.10
2022-08-14T03:51:17.213Z,15.35
2022-08-14T03:54:06.068Z,14.93
2022-08-14T03:56:54.454Z,16.20
2022-08-14T03:59:40.064Z,18.25
2022-08-14T04:02:32.882Z,16.83
2022-08-14T04:05:19.069Z,18.17
2022-08-14T04:08:23.030Z,17.38
2022-08-14T04:11:13.523Z,17.13
2022-08-14T04:14:01.268Z,16.77
2022-08-14T04:16:47.362Z,17.93
2022-08-14T04:19:33.213Z,15.70
2022-08-14T04:22:22.137Z,18.05
2022-08-14T04:25:08.398Z,18.27
2022-08-14T04:28:03.361Z,16.83
2022-08-14T04:30:48.961Z,17.07
2022-08-14T04:33:34.510Z,16.05
2022-08-14T04:36:20.063Z,17.70
2022-08-14T04:39:27.993Z,17.42
2022-08-14T04:42:33.003Z,17.50
2022-08-14T04:45:23.700Z,17.60
2022-08-14T04:48:39.929Z,17.27
2022-08-14T04:51:21.538Z,18.60
2022-08-14T04:54:08.828Z,18.65
2022-08-14T04:56:56.391Z,18.15
2022-08-14T04:59:42.859Z,16.70
2022-08-14T05:02:28.576Z,16.38
2022-08-14T05:05:14.167Z,16.30
2022-08-14T05:08:12.233Z,17.98
2022-08-14T05:11:19.325Z,17.92
2022-08-14T05:14:17.150Z,17.60
2022-08-14T05:17:12.051Z,17.35
2022-08-14T05:21:58.292Z,17.17
2022-08-14T05:23:03.658Z,16.27
2022-08-14T05:25:54.933Z,16.13
2022-08-14T05:28:44.767Z,15.63
2022-08-14T05:31:39.434Z,15.55
2022-08-14T05:34:31.892Z,17.33
2022-08-14T05:37:17.352Z,17.13
2022-08-14T05:40:03.070Z,16.85
2022-08-14T05:42:52.712Z,17.87
2022-08-14T05:45:38.887Z,16.45
2022-08-14T05:48:33.385Z,15.95
2022-08-14T05:51:21.091Z,17.88
2022-08-14T05:54:13.503Z,16.25
2022-08-14T05:57:05.863Z,16.17
2022-08-14T05:59:50.831Z,16.85
2022-08-14T06:02:36.792Z,16.15
2022-08-14T06:05:28.583Z,18.50
2022-08-14T06:08:36.701Z,16.42
2022-08-14T06:11:30.531Z,15.40
2022-08-14T06:14:21.445Z,16.30
2022-08-14T06:17:09.429Z,14.60
2022-08-14T06:20:01.035Z,16.67
2022-08-14T06:22:47.200Z,15.93
2022-08-14T06:25:35.023Z,14.20
2022-08-14T06:28:29.425Z,15.48
2022-08-14T06:31:15.405Z,15.20
2022-08-14T06:35:02.544Z,15.40
2022-08-14T06:37:05.973Z,15.15
2022-08-14T06:39:51.076Z,15.80
2022-08-14T06:42:39.177Z,16.08
2022-08-14T06:45:27.069Z,16.17
2022-08-14T06:48:17.976Z,15.55
2022-08-14T06:51:06.870Z,16.35
2022-08-14T06:53:52.186Z,16.70
2022-08-14T06:56:37.472Z,16.52
2022-08-14T06:59:24.004Z,17.80
2022-08-14T07:02:28.840Z,15.75
2022-08-14T07:05:33.210Z,13.43
2022-08-14T07:08:29.610Z,17.17
2022-08-14T07:11:16.916Z,14.65
2022-08-14T07:14:04.890Z,17.42
2022-08-14T07:16:50.153Z,15.88
2022-08-14T07:19:35.143Z,13.35
2022-08-14T07:22:21.695Z,13.20
2022-08-14T07:25:07.288Z,11.73
2022-08-14T07:27:54.024Z,13.52
2022-08-14T07:30:41.983Z,13.50
2022-08-14T07:33:50.730Z,14.32
2022-08-14T07:36:36.182Z,14.57
2022-08-14T07:39:27.713Z,12.20
2022-08-14T07:42:14.182Z,13.40
2022-08-14T07:45:05.647Z,14.18
2022-08-14T07:47:51.682Z,15.98
2022-08-14T07:50:37.296Z,14.80
2022-08-14T07:53:22.834Z,13.60
2022-08-14T07:56:44.385Z,16.00
2022-08-14T07:59:17.990Z,15.57
2022-08-14T08:02:04.818Z,16.05
2022-08-14T08:04:55.111Z,14.37
2022-08-14T08:07:45.787Z,13.77
2022-08-14T08:11:01.853Z,14.13
2022-08-14T08:13:41.606Z,14.90
2022-08-14T08:16:34.526Z,17.23
2022-08-14T08:19:19.663Z,14.80
2022-08-14T08:22:05.418Z,15.98
2022-08-14T08:24:50.975Z,19.02
2022-08-14T08:27:36.499Z,13.93
2022-08-14T08:30:32.376Z,15.55
2022-08-14T08:33:22.716Z,13.13
2022-08-14T08:36:12.833Z,14.38
2022-08-14T08:39:18.147Z,13.77
2022-08-14T08:42:06.924Z,13.93
2022-08-14T08:44:55.716Z,14.23
2022-08-14T08:47:41.279Z,13.43
2022-08-14T08:53:15.920Z,14.25
2022-08-14T08:56:02.365Z,13.05
2022-08-14T08:58:47.402Z,13.98
2022-08-14T09:01:34.027Z,14.00
2022-08-14T09:04:21.454Z,14.35
2022-08-14T09:07:10.149Z,15.25
2022-08-14T09:09:59.847Z,13.23
2022-08-14T09:12:46.855Z,12.27
2022-08-14T09:15:42.796Z,13.40
2022-08-14T09:18:28.139Z,13.88
2022-08-14T09:21:13.145Z,13.40
2022-08-14T09:24:29.566Z,15.10
2022-08-14T09:27:07.153Z,12.30
2022-08-14T09:29:54.275Z,12.63
2022-08-14T09:33:09.179Z,12.85
2022-08-14T09:36:16.770Z,10.98
2022-08-14T09:39:23.249Z,12.68
2022-08-14T09:42:51.036Z,14.35
2022-08-14T09:45:53.409Z,11.90
2022-08-14T09:48:39.405Z,14.60
2022-08-14T09:51:32.624Z,12.80
2022-08-14T09:54:22.951Z,13.07
2022-08-14T09:57:13.920Z,16.65
2022-08-14T10:00:28.693Z,12.87
2022-08-14T10:03:34.055Z,11.75
2022-08-14T10:06:25.135Z,11.13
2022-08-14T10:09:16.761Z,13.00
2022-08-14T10:12:04.496Z,11.45
2022-08-14T10:14:53.275Z,11.63
2022-08-14T10:17:39.722Z,12.80
2022-08-14T10:20:40.383Z,11.32
2022-08-14T10:23:30.169Z,12.77
2022-08-14T10:26:22.951Z,11.80
2022-08-14T10:29:19.752Z,12.47
2022-08-14T10:32:18.285Z,13.43
2022-08-14T10:35:16.013Z,12.07
2022-08-14T10:38:01.280Z,10.43
2022-08-14T10:40:52.193Z,10.82
2022-08-14T10:44:04.304Z,13.30
2022-08-14T10:47:39.771Z,10.32
2022-08-14T10:50:12.113Z,10.90
2022-08-14T10:53:05.407Z,11.57
2022-08-14T10:55:59.121Z,10.95
2022-08-14T10:58:43.834Z,11.50
2022-08-14T11:01:40.153Z,12.82
2022-08-14T11:04:30.495Z,10.13
2022-08-14T11:07:21.060Z,10.80
2022-08-14T11:10:10.470Z,9.77
2022-08-14T11:12:57.708Z,10.97
2022-08-14T11:15:43.288Z,13.10
2022-08-14T11:18:39.898Z,18.73
2022-08-14T11:21:30.092Z,23.15
2022-08-14T11:24:54.703Z,17.65
2022-08-14T11:27:33.097Z,16.63
2022-08-14T11:30:51.225Z,16.20
2022-08-14T11:33:34.780Z,17.15
2022-08-14T11:36:56.919Z,15.88
2022-08-14T11:39:37.094Z,14.20
2022-08-14T11:42:58.142Z,12.07
2022-08-14T11:45:39.171Z,14.93
2022-08-14T11:49:03.050Z,13.73
2022-08-14T11:51:36.249Z,31.60
2022-08-14T11:54:36.270Z,26.88
2022-08-14T11:57:22.724Z,26.30
2022-08-14T12:00:19.418Z,36.85
2022-08-14T12:03:05.351Z,33.90
2022-08-14T12:05:50.465Z,32.10
2022-08-14T12:08:38.676Z,28.52
2022-08-14T12:11:24.043Z,27.00
2022-08-14T12:14:13.536Z,38.35
2022-08-14T12:17:15.546Z,38.58
2022-08-14T12:20:10.061Z,39.22
2022-08-14T12:23:19.270Z,36.53
2022-08-14T12:26:12.194Z,32.97
2022-08-14T12:29:16.592Z,35.22
2022-08-14T12:32:08.863Z,33.80
2022-08-14T12:34:55.266Z,28.85
2022-08-14T12:37:49.046Z,28.40
2022-08-14T12:40:55.979Z,35.23
2022-08-14T12:43:48.001Z,27.10
2022-08-14T12:46:40.560Z,27.75
2022-08-14T12:49:28.879Z,27.40
2022-08-14T12:52:17.216Z,29.70
2022-08-14T12:55:07.140Z,25.13
2022-08-14T12:57:53.426Z,25.40
2022-08-14T13:01:16.072Z,24.23
2022-08-14T13:04:14.789Z,23.95
2022-08-14T13:07:10.375Z,22.50
2022-08-14T13:09:56.382Z,22.27
2022-08-14T13:13:11.622Z,22.33
2022-08-14T13:15:57.230Z,24.80
2022-08-14T13:18:46.692Z,20.30
2022-08-14T13:22:05.977Z,22.20
2022-08-14T13:24:39.621Z,23.23
2022-08-14T13:27:25.260Z,20.50
2022-08-14T13:30:21.212Z,21.23
2022-08-14T13:33:14.881Z,20.90
2022-08-14T13:36:03.457Z,21.58
2022-08-14T13:38:50.190Z,18.13
2022-08-14T13:41:36.391Z,19.10
2022-08-14T13:44:25.429Z,19.17
2022-08-14T13:47:12.093Z,17.80
2022-08-14T13:50:02.861Z,16.92
2022-08-14T13:52:55.036Z,16.87
2022-08-14T13:55:42.393Z,20.65
2022-08-14T13:58:34.492Z,18.02
2022-08-14T14:01:21.366Z,17.45
2022-08-14T14:04:08.986Z,18.67
2022-08-14T14:07:03.463Z,18.87
2022-08-14T14:09:50.978Z,20.25
2022-08-14T14:12:41.242Z,18.90
2022-08-14T14:15:28.713Z,16.02
2022-08-14T14:18:33.864Z,18.73
2022-08-14T14:21:22.337Z,14.37
2022-08-14T14:24:07.981Z,15.00
2022-08-14T14:27:23.742Z,17.05
2022-08-14T14:30:27.688Z,15.52
2022-08-14T14:33:42.522Z,15.23
2022-08-14T14:36:28.489Z,18.90
2022-08-14T14:39:19.930Z,19.70
2022-08-14T14:42:08.234Z,15.05
2022-08-14T14:45:17.924Z,14.32
2022-08-14T14:48:06.518Z,14.43
2022-08-14T14:50:53.001Z,15.87
2022-08-14T14:53:39.528Z,17.80
2022-08-14T14:56:48.178Z,15.20
2022-08-14T14:59:35.776Z,18.75
2022-08-14T15:02:34.633Z,14.73
2022-08-14T15:05:23.198Z,14.47
2022-08-14T15:08:17.176Z,17.20
2022-08-14T15:11:13.679Z,30.08
2022-08-14T15:14:00.405Z,47.05
2022-08-14T15:16:45.625Z,74.53
2022-08-14T15:19:32.368Z,106.27
2022-08-14T15:22:17.810Z,177.68
2022-08-14T15:25:03.102Z,164.77
2022-08-14T15:27:51.172Z,188.73
2022-08-14T15:30:41.879Z,179.10
2022-08-14T15:34:13.129Z,168.73
2022-08-14T15:36:51.767Z,163.75
2022-08-14T15:39:38.517Z,160.52
2022-08-14T15:42:24.632Z,158.35
2022-08-14T15:45:16.778Z,160.10
2022-08-14T15:48:02.465Z,162.53
2022-08-14T15:50:50.901Z,154.55
2022-08-14T15:53:37.083Z,137.98
2022-08-14T15:56:42.535Z,138.02
2022-08-14T15:59:48.688Z,147.10
2022-08-14T16:02:34.908Z,129.70
2022-08-14T16:05:25.423Z,120.18
2022-08-14T16:08:24.386Z,125.50
2022-08-14T16:11:15.078Z,107.90
2022-08-14T16:14:01.041Z,102.53
2022-08-14T16:16:51.470Z,102.37
2022-08-14T16:19:47.567Z,112.80
2022-08-14T16:22:58.352Z,105.47
2022-08-14T16:25:45.074Z,93.70
2022-08-14T16:28:34.566Z,77.97
2022-08-14T16:31:21.054Z,38.00
2022-08-14T16:34:46.374Z,36.25
2022-08-14T16:37:16.621Z,30.63
2022-08-14T16:40:03.338Z,23.80
2022-08-14T16:43:04.473Z,20.05
2022-08-14T16:45:59.188Z,17.67
2022-08-14T16:48:54.781Z,13.45
2022-08-14T16:51:44.068Z,14.70
2022-08-14T16:54:34.916Z,13.77
2022-08-14T16:57:32.380Z,18.50
2022-08-14T17:00:29.073Z,17.80
2022-08-14T17:03:14.600Z,14.15
2022-08-14T17:06:00.583Z,11.45
2022-08-14T17:08:46.866Z,10.07
2022-08-14T17:11:33.252Z,13.20
2022-08-14T17:14:25.526Z,12.13
2022-08-14T17:17:11.490Z,10.85
2022-08-14T17:20:39.342Z,11.68
2022-08-14T17:23:14.851Z,9.15
2022-08-14T17:26:00.006Z,10.45
2022-08-14T17:29:07.838Z,10.63
2022-08-14T17:32:01.786Z,11.38
2022-08-14T17:34:50.326Z,8.43
2022-08-14T17:37:45.890Z,9.38
2022-08-14T17:40:33.108Z,10.35
2022-08-14T17:43:18.598Z,9.43
2022-08-14T17:46:06.451Z,10.50
2022-08-14T17:49:16.828Z,8.60
2022-08-14T17:52:16.759Z,9.20
2022-08-14T17:55:06.951Z,13.52
2022-08-14T17:57:54.480Z,9.70
2022-08-14T18:00:40.911Z,11.10
2022-08-14T18:03:50.292Z,7.68
2022-08-14T18:06:39.592Z,9.15
2022-08-14T18:09:56.209Z,8.88
2022-08-14T18:12:43.986Z,8.03
2022-08-14T18:15:36.841Z,8.98
2022-08-14T18:18:22.699Z,9.38
2022-08-14T18:21:43.112Z,8.45
2022-08-14T18:24:28.137Z,8.52
2022-08-14T18:27:22.820Z,7.30
2022-08-14T18:30:31.669Z,9.52
2022-08-14T18:33:20.992Z,8.73
2022-08-14T18:36:46.732Z,8.70
2022-08-14T18:39:26.015Z,9.93
2022-08-14T18:42:23.831Z,11.37
2022-08-14T18:45:15.710Z,13.45
2022-08-14T18:48:19.315Z,11.63
2022-08-14T18:51:10.976Z,10.95
2022-08-14T18:53:59.375Z,9.10
2022-08-14T18:57:05.217Z,9.43
2022-08-14T18:59:50.683Z,10.18
2022-08-14T19:02:36.029Z,10.35
2022-08-14T19:05:57.265Z,14.65
2022-08-14T19:08:45.770Z,9.52
2022-08-14T19:11:32.300Z,12.23
2022-08-14T19:14:44.923Z,11.57
2022-08-14T19:18:15.113Z,10.18
2022-08-14T19:21:03.456Z,11.85
2022-08-14T19:24:26.763Z,10.07
2022-08-14T19:27:23.246Z,11.90
2022-08-14T19:30:20.258Z,10.98
2022-08-14T19:33:55.562Z,11.27
2022-08-14T19:37:05.173Z,12.23
2022-08-14T19:39:56.046Z,10.85
2022-08-14T19:42:46.805Z,10.27
2022-08-14T19:45:33.813Z,10.52
2022-08-14T19:48:19.035Z,10.30
2022-08-14T19:51:05.912Z,12.75
2022-08-14T19:54:03.219Z,11.05
2022-08-14T19:56:49.393Z,10.60
2022-08-14T19:59:57.985Z,10.55
2022-08-14T20:02:50.374Z,10.32
2022-08-14T20:05:46.389Z,9.65
2022-08-14T20:11:01.431Z,9.60
2022-08-14T20:12:01.565Z,10.37
2022-08-14T20:14:51.745Z,10.57
2022-08-14T20:17:40.370Z,11.13
2022-08-14T20:20:31.551Z,10.75
2022-08-14T20:23:18.866Z,10.80
2022-08-14T20:26:04.093Z,10.20
2022-08-14T20:28:55.658Z,9.75
2022-08-14T20:31:40.515Z,10.80
2022-08-14T20:34:40.162Z,10.82
2022-08-14T20:37:37.090Z,10.68
2022-08-14T20:40:24.235Z,12.00
2022-08-14T20:43:37.326Z,10.55
2022-08-14T20:46:31.610Z,13.45
2022-08-14T20:49:18.823Z,9.73
2022-08-14T20:52:19.215Z,10.02
2022-08-14T20:55:22.669Z,9.50
2022-08-14T20:58:41.938Z,9.48
2022-08-14T21:01:33.601Z,10.32
2022-08-14T21:04:33.790Z,9.52
2022-08-14T21:07:24.812Z,8.98
2022-08-14T21:10:33.256Z,9.17
2022-08-14T21:14:09.204Z,9.90
2022-08-14T21:16:35.730Z,8.73
2022-08-14T21:19:26.167Z,8.80
2022-08-14T21:22:12.378Z,11.10
2022-08-14T21:25:02.182Z,10.00
2022-08-14T21:27:56.977Z,10.60
2022-08-14T21:30:51.137Z,11.65
2022-08-14T21:33:39.918Z,11.10
2022-08-14T21:36:30.914Z,14.88
2022-08-14T21:39:19.529Z,14.00
2022-08-14T21:42:06.182Z,13.35
2022-08-14T21:44:53.420Z,11.30
2022-08-14T21:47:39.054Z,13.35
2022-08-14T21:50:56.348Z,11.45
2022-08-14T21:53:34.171Z,14.03
2022-08-14T21:56:19.288Z,11.93
2022-08-14T21:59:09.040Z,11.60
2022-08-14T22:02:01.860Z,11.63
2022-08-14T22:04:48.654Z,14.38
2022-08-14T22:07:36.786Z,14.80
2022-08-14T22:10:24.258Z,14.10
2022-08-14T22:13:18.155Z,11.15
2022-08-14T22:16:04.266Z,10.77
2022-08-14T22:18:51.339Z,11.75
2022-08-14T22:21:37.909Z,13.43
2022-08-14T22:24:38.237Z,11.25
2022-08-14T22:27:37.535Z,9.30
2022-08-14T22:30:42.751Z,11.23
2022-08-14T22:33:30.619Z,10.35
2022-08-14T22:36:42.173Z,8.90
2022-08-14T22:40:17.084Z,10.20
2022-08-14T22:42:40.903Z,11.38
2022-08-14T22:45:55.306Z,11.55
2022-08-14T22:48:41.549Z,15.43
2022-08-14T22:51:28.143Z,14.17
2022-08-14T22:54:52.453Z,13.10
2022-08-14T22:57:19.574Z,17.02
2022-08-14T23:00:13.419Z,14.95
2022-08-14T23:03:02.561Z,13.55
2022-08-14T23:05:52.846Z,15.63
2022-08-14T23:12:42.767Z,12.73
2022-08-14T23:15:28.963Z,13.02
2022-08-14T23:18:15.520Z,14.88
2022-08-14T23:21:01.536Z,13.03
2022-08-14T23:23:46.535Z,15.13
2022-08-14T23:26:47.733Z,13.63
2022-08-14T23:29:37.828Z,12.50
2022-08-14T23:32:24.859Z,18.50
2022-08-14T23:35:10.124Z,18.47
2022-08-14T23:38:01.190Z,12.10
2022-08-14T23:40:47.312Z,16.88
2022-08-14T23:43:32.529Z,15.25
2022-08-14T23:46:20.391Z,17.75
2022-08-14T23:49:06.180Z,13.87
2022-08-14T23:51:59.694Z,13.68
2022-08-14T23:54:57.047Z,16.98
2022-08-14T23:57:57.603Z,16.75
